createdAt,value
2022-12-04T00:01:28.700Z,29.00
2022-12-04T00:03:59.468Z,32.00
2022-12-04T00:06:29.142Z,30.00
2022-12-04T00:08:57.217Z,29.00
2022-12-04T00:11:28.342Z,32.00
2022-12-04T00:14:01.465Z,30.00
2022-12-04T00:16:32.951Z,28.00
2022-12-04T00:19:01.050Z,30.33
2022-12-04T00:21:28.978Z,31.00
2022-12-04T00:28:56.061Z,21.00
2022-12-04T00:31:27.422Z,33.00
2022-12-04T00:33:55.992Z,32.00
2022-12-04T00:36:26.288Z,29.00
2022-12-04T00:38:55.375Z,28.00
2022-12-04T00:41:26.002Z,30.00
2022-12-04T00:43:54.265Z,27.00
2022-12-04T00:48:51.472Z,30.00
2022-12-04T00:51:25.207Z,31.00
2022-12-04T00:53:53.762Z,31.00
2022-12-04T00:56:28.231Z,31.00
2022-12-04T00:59:00.029Z,28.50
2022-12-04T01:01:29.432Z,29.00
2022-12-04T01:03:57.395Z,31.00
2022-12-04T01:06:28.688Z,31.00
2022-12-04T01:08:58.841Z,31.00
2022-12-04T01:13:56.714Z,30.00
2022-12-04T01:16:31.085Z,32.00
2022-12-04T01:18:59.442Z,28.50
2022-12-04T01:21:27.975Z,30.50
2022-12-04T01:23:56.039Z,30.00
2022-12-04T01:26:24.142Z,26.50
2022-12-04T01:28:52.072Z,27.00
2022-12-04T01:31:21.719Z,27.00
2022-12-04T01:33:50.557Z,28.00
2022-12-04T01:41:19.346Z,28.00
2022-12-04T01:44:15.149Z,27.00
2022-12-04T01:46:46.092Z,25.00
2022-12-04T01:49:25.987Z,26.00
2022-12-04T01:52:01.073Z,26.50
2022-12-04T01:54:35.094Z,20.00
2022-12-04T01:57:11.556Z,26.00
2022-12-04T01:59:53.980Z,27.00
2022-12-04T02:05:23.163Z,23.50
2022-12-04T02:07:57.385Z,30.00
2022-12-04T02:11:07.317Z,26.50
2022-12-04T02:14:03.416Z,28.00
2022-12-04T02:17:02.895Z,27.00
2022-12-04T02:19:53.049Z,23.00
2022-12-04T02:22:42.270Z,27.00
2022-12-04T02:28:12.996Z,26.00
2022-12-04T02:30:44.188Z,26.00
2022-12-04T02:33:46.275Z,26.00
2022-12-04T02:36:22.068Z,22.00
2022-12-04T02:41:48.984Z,24.00
2022-12-04T02:44:25.835Z,24.00
2022-12-04T02:47:04.971Z,23.00
2022-12-04T02:49:44.642Z,27.00
2022-12-04T02:52:17.329Z,23.00
2022-12-04T02:54:55.964Z,24.00
2022-12-04T02:57:30.195Z,23.00
2022-12-04T03:00:00.316Z,23.00
2022-12-04T03:02:46.170Z,24.00
2022-12-04T03:05:18.819Z,23.00
2022-12-04T03:07:56.555Z,22.50
2022-12-04T03:10:36.603Z,27.00
2022-12-04T03:15:43.807Z,19.00
2022-12-04T03:18:18.745Z,26.00
2022-12-04T03:25:57.172Z,21.50
2022-12-04T03:28:38.685Z,23.00
2022-12-04T03:36:24.915Z,25.00
2022-12-04T03:39:12.926Z,23.00
2022-12-04T03:42:12.970Z,20.00
2022-12-04T03:47:41.370Z,18.00
2022-12-04T03:53:03.279Z,17.50
2022-12-04T03:58:28.202Z,15.00
2022-12-04T04:00:58.486Z,18.50
2022-12-04T04:03:34.338Z,20.00
2022-12-04T04:06:14.439Z,17.00
2022-12-04T04:08:49.943Z,20.00
2022-12-04T04:11:27.850Z,18.00
2022-12-04T04:14:23.856Z,21.00
2022-12-04T04:17:18.102Z,20.00
2022-12-04T04:20:09.958Z,19.00
2022-12-04T04:22:58.283Z,20.00
2022-12-04T04:25:29.304Z,21.00
2022-12-04T04:27:58.608Z,19.00
2022-12-04T04:30:29.364Z,16.00
2022-12-04T04:33:13.218Z,18.00
2022-12-04T04:35:58.755Z,18.50
2022-12-04T04:41:19.626Z,18.00
2022-12-04T04:44:00.174Z,18.00
2022-12-04T04:46:32.764Z,20.00
2022-12-04T04:49:04.268Z,22.00
2022-12-04T04:54:07.097Z,17.50
2022-12-04T04:56:41.531Z,2.00
2022-12-04T04:59:09.984Z,17.00
2022-12-04T05:01:39.928Z,19.00
2022-12-04T05:04:08.444Z,16.00
2022-12-04T05:09:04.326Z,20.00
2022-12-04T05:14:00.476Z,19.00
2022-12-04T05:16:28.557Z,13.50
2022-12-04T05:19:15.204Z,18.00
2022-12-04T05:21:43.454Z,20.50
2022-12-04T05:24:11.448Z,21.00
2022-12-04T05:34:03.135Z,16.00
2022-12-04T05:36:31.192Z,20.00
2022-12-04T05:38:59.220Z,17.00
2022-12-04T05:41:27.066Z,17.00
2022-12-04T05:43:55.144Z,18.00
2022-12-04T05:46:23.256Z,13.00
2022-12-04T05:48:52.377Z,15.00
2022-12-04T05:51:20.377Z,9.00
2022-12-04T05:53:51.859Z,16.00
2022-12-04T05:56:19.768Z,14.00
2022-12-04T05:58:48.304Z,18.00
2022-12-04T06:01:19.621Z,14.50
2022-12-04T06:03:47.580Z,15.50
2022-12-04T06:06:21.914Z,17.00
2022-12-04T06:08:52.249Z,14.00
2022-12-04T06:11:23.058Z,13.00
2022-12-04T06:13:51.862Z,14.50
2022-12-04T06:16:23.093Z,15.50
2022-12-04T06:18:52.566Z,13.00
2022-12-04T06:21:23.905Z,16.00
2022-12-04T06:23:53.031Z,16.00
2022-12-04T06:28:49.664Z,15.00
2022-12-04T06:31:19.188Z,15.00
2022-12-04T06:38:45.771Z,15.00
2022-12-04T06:43:42.955Z,15.00
2022-12-04T06:46:17.119Z,11.00
2022-12-04T06:48:45.777Z,14.50
2022-12-04T06:53:44.514Z,14.00
2022-12-04T06:56:18.141Z,12.00
2022-12-04T06:58:47.860Z,17.00
2022-12-04T07:03:50.955Z,9.00
2022-12-04T07:08:52.291Z,13.00
2022-12-04T07:16:19.591Z,14.00
2022-12-04T07:18:53.449Z,13.00
2022-12-04T07:21:29.890Z,12.00
2022-12-04T07:24:00.232Z,12.00
2022-12-04T07:26:29.588Z,11.00
2022-12-04T07:28:59.865Z,12.00
2022-12-04T07:31:30.056Z,15.00
2022-12-04T07:36:27.269Z,13.00
2022-12-04T07:38:56.676Z,14.50
2022-12-04T07:41:24.719Z,11.00
2022-12-04T07:43:54.046Z,11.00
2022-12-04T07:46:25.293Z,12.00
2022-12-04T07:48:55.759Z,9.00
2022-12-04T07:53:54.240Z,11.00
2022-12-04T07:58:50.250Z,10.00
2022-12-04T08:01:23.854Z,10.00
2022-12-04T08:03:55.467Z,12.00
2022-12-04T08:06:25.205Z,15.00
2022-12-04T08:08:53.941Z,9.00
2022-12-04T08:11:24.567Z,15.50
2022-12-04T08:13:57.855Z,12.00
2022-12-04T08:16:27.497Z,12.00
2022-12-04T08:18:56.227Z,16.00
2022-12-04T08:23:56.831Z,13.50
2022-12-04T08:36:23.504Z,13.00
2022-12-04T08:41:24.166Z,12.00
2022-12-04T08:43:54.852Z,14.00
2022-12-04T08:46:24.987Z,11.00
2022-12-04T08:48:53.695Z,13.00
2022-12-04T08:51:24.983Z,14.00
2022-12-04T08:53:59.193Z,15.50
2022-12-04T08:56:30.207Z,13.50
2022-12-04T09:01:29.218Z,14.00
2022-12-04T09:06:28.036Z,15.00
2022-12-04T09:08:57.251Z,14.00
2022-12-04T09:11:27.923Z,15.00
2022-12-04T09:13:56.240Z,17.00
2022-12-04T09:16:26.499Z,19.50
2022-12-04T09:18:55.668Z,18.00
2022-12-04T09:21:25.197Z,20.00
2022-12-04T09:23:53.508Z,19.00
2022-12-04T09:26:28.539Z,19.00
2022-12-04T09:31:26.455Z,15.00
2022-12-04T09:38:53.413Z,0.00
2022-12-04T09:41:33.920Z,13.00
2022-12-04T09:44:14.386Z,16.00
2022-12-04T09:47:04.268Z,17.50
2022-12-04T09:49:41.545Z,19.00
2022-12-04T09:52:23.173Z,21.00
2022-12-04T09:54:53.991Z,21.00
2022-12-04T09:57:37.657Z,19.00
2022-12-04T10:00:07.616Z,18.00
2022-12-04T10:02:41.513Z,13.50
2022-12-04T10:05:28.921Z,20.00
2022-12-04T10:10:42.788Z,14.00
2022-12-04T10:13:42.385Z,17.00
2022-12-04T10:16:28.379Z,19.00
2022-12-04T10:22:15.939Z,16.00
2022-12-04T10:24:59.285Z,14.00
2022-12-04T10:27:31.250Z,18.00
2022-12-04T10:30:05.457Z,13.00
2022-12-04T10:32:34.701Z,14.00
2022-12-04T10:35:22.894Z,13.50
2022-12-04T10:37:56.961Z,14.50
2022-12-04T10:40:29.309Z,15.00
2022-12-04T10:53:31.119Z,23.00
2022-12-04T10:56:20.448Z,18.00
2022-12-04T10:59:06.058Z,17.00
2022-12-04T11:01:36.017Z,15.00
2022-12-04T11:06:37.344Z,5.00
2022-12-04T11:09:25.190Z,18.00
2022-12-04T11:12:15.340Z,16.50
2022-12-04T11:15:15.459Z,15.00
2022-12-04T11:18:30.761Z,17.00
2022-12-04T11:21:18.564Z,17.00
2022-12-04T11:23:50.829Z,17.00
2022-12-04T11:26:45.168Z,19.00
2022-12-04T11:29:23.900Z,20.00
2022-12-04T11:32:07.490Z,17.00
2022-12-04T11:34:41.320Z,18.00
2022-12-04T11:37:43.539Z,15.00
2022-12-04T11:40:30.774Z,16.00
2022-12-04T11:43:12.757Z,20.00
2022-12-04T11:45:42.437Z,17.00
2022-12-04T11:50:54.548Z,16.00
2022-12-04T11:53:56.992Z,23.50
2022-12-04T11:56:31.722Z,17.00
2022-12-04T12:01:56.310Z,16.00
2022-12-04T12:04:39.514Z,14.00
2022-12-04T12:07:32.386Z,13.00
2022-12-04T12:10:22.146Z,15.00
2022-12-04T12:13:21.446Z,16.00
2022-12-04T12:16:07.128Z,16.00
2022-12-04T12:21:29.460Z,19.00
2022-12-04T12:24:27.265Z,13.00
2022-12-04T12:27:20.858Z,14.00
2022-12-04T12:30:11.435Z,16.00
2022-12-04T12:33:34.284Z,15.00
2022-12-04T12:36:10.074Z,12.00
2022-12-04T12:38:49.726Z,15.50
2022-12-04T12:41:47.600Z,12.50
2022-12-04T12:44:24.341Z,13.00
2022-12-04T12:46:55.416Z,11.00
2022-12-04T12:49:35.316Z,9.50
2022-12-04T12:52:32.875Z,14.00
2022-12-04T12:55:10.220Z,14.00
2022-12-04T12:58:14.082Z,15.00
2022-12-04T13:00:50.191Z,12.50
2022-12-04T13:03:24.666Z,10.00
2022-12-04T13:05:57.550Z,14.00
2022-12-04T13:08:45.049Z,16.00
2022-12-04T13:11:22.772Z,13.00
2022-12-04T13:13:56.261Z,15.00
2022-12-04T13:19:15.887Z,14.00
2022-12-04T13:21:59.164Z,14.00
2022-12-04T13:24:47.939Z,14.00
2022-12-04T13:28:04.814Z,10.00
2022-12-04T13:31:03.220Z,14.00
2022-12-04T13:34:10.263Z,11.00
2022-12-04T13:37:03.882Z,13.00
2022-12-04T13:39:35.306Z,15.00
2022-12-04T13:44:35.649Z,19.00
2022-12-04T13:47:24.782Z,18.00
2022-12-04T13:50:25.234Z,15.00
2022-12-04T13:52:53.881Z,16.00
2022-12-04T13:55:31.592Z,14.00
2022-12-04T13:58:03.361Z,22.00
2022-12-04T14:03:07.582Z,20.00
2022-12-04T14:05:51.859Z,16.00
2022-12-04T14:08:21.032Z,18.00
2022-12-04T14:11:05.004Z,17.00
2022-12-04T14:14:01.184Z,15.00
2022-12-04T14:37:53.330Z,16.00
2022-12-04T14:40:28.844Z,18.00
2022-12-04T14:43:00.207Z,22.00
2022-12-04T14:48:09.939Z,21.00
2022-12-04T14:54:02.055Z,15.00
2022-12-04T14:56:52.363Z,20.00
2022-12-04T15:04:33.293Z,21.00
2022-12-04T15:07:05.010Z,18.50
2022-12-04T15:15:27.618Z,21.00
2022-12-04T15:21:01.252Z,17.00
2022-12-04T15:23:38.294Z,14.00
2022-12-04T15:28:53.128Z,18.50
2022-12-04T15:31:26.775Z,20.50
2022-12-04T15:34:00.766Z,18.00
2022-12-04T15:36:50.918Z,20.00
2022-12-04T15:41:51.616Z,18.00
2022-12-04T15:44:32.803Z,21.00
2022-12-04T15:47:04.031Z,21.00
2022-12-04T15:52:15.559Z,21.00
2022-12-04T15:54:59.226Z,14.50
2022-12-04T15:57:37.732Z,17.00
2022-12-04T16:00:28.569Z,18.00
2022-12-04T16:08:22.164Z,15.00
2022-12-04T16:11:02.629Z,18.00
2022-12-04T16:13:34.410Z,20.00
2022-12-04T16:16:11.523Z,15.00
2022-12-04T16:18:40.327Z,19.00
2022-12-04T16:21:18.274Z,18.00
2022-12-04T16:23:46.593Z,20.00
2022-12-04T16:28:48.056Z,16.00
2022-12-04T16:31:19.350Z,17.00
2022-12-04T16:36:15.585Z,22.00
2022-12-04T16:38:43.955Z,24.00
2022-12-04T16:41:16.888Z,17.00
2022-12-04T16:43:45.289Z,24.00
2022-12-04T16:46:15.918Z,20.00
2022-12-04T16:48:44.142Z,23.00
2022-12-04T16:51:17.952Z,17.00
2022-12-04T16:53:46.460Z,21.00
2022-12-04T16:56:14.532Z,17.00
2022-12-04T16:58:44.202Z,23.00
2022-12-04T17:01:36.698Z,20.00
2022-12-04T17:04:05.087Z,21.00
2022-12-04T17:06:33.375Z,19.00
2022-12-04T17:11:30.484Z,16.00
2022-12-04T17:13:59.053Z,21.00
2022-12-04T17:18:57.878Z,21.00
2022-12-04T17:21:25.969Z,19.50
2022-12-04T17:26:23.418Z,0.00
2022-12-04T17:29:01.859Z,19.00
2022-12-04T17:34:00.068Z,14.00
2022-12-04T17:36:28.588Z,15.00
2022-12-04T17:38:58.785Z,17.00
2022-12-04T17:41:28.057Z,17.00
2022-12-04T17:43:56.259Z,17.00
2022-12-04T17:46:24.937Z,19.50
2022-12-04T17:48:56.207Z,17.00
2022-12-04T17:51:25.330Z,17.00
2022-12-04T17:59:03.215Z,23.00
2022-12-04T18:01:31.849Z,18.00
2022-12-04T18:06:34.101Z,19.00
2022-12-04T18:09:03.658Z,23.00
2022-12-04T18:11:33.708Z,19.00
2022-12-04T18:14:12.015Z,22.00
2022-12-04T18:16:46.485Z,22.00
2022-12-04T18:19:16.527Z,22.00
2022-12-04T18:21:44.577Z,18.50
2022-12-04T18:24:14.075Z,21.00
2022-12-04T18:29:15.145Z,12.50
2022-12-04T18:31:43.402Z,19.00
2022-12-04T18:39:15.227Z,16.50
2022-12-04T18:46:40.946Z,14.00
2022-12-04T18:49:10.550Z,20.00
2022-12-04T18:51:42.283Z,17.00
2022-12-04T18:56:45.816Z,16.00
2022-12-04T19:01:43.654Z,4.00
2022-12-04T19:04:14.131Z,17.00
2022-12-04T19:06:48.727Z,18.50
2022-12-04T19:11:46.977Z,20.00
2022-12-04T19:14:23.117Z,20.00
2022-12-04T19:16:52.286Z,16.00
2022-12-04T19:19:20.621Z,23.00
2022-12-04T19:21:48.831Z,18.00
2022-12-04T19:24:17.085Z,17.00
2022-12-04T19:26:45.126Z,20.00
2022-12-04T19:29:14.810Z,17.00
2022-12-04T19:31:43.140Z,15.00
2022-12-04T19:34:11.265Z,18.00
2022-12-04T19:36:41.337Z,17.00
2022-12-04T19:39:10.117Z,17.00
2022-12-04T19:41:40.859Z,17.00
2022-12-04T19:44:40.205Z,18.00
2022-12-04T19:46:58.219Z,16.00
2022-12-04T19:49:26.325Z,19.00
2022-12-04T19:54:24.007Z,20.00
2022-12-04T19:56:52.684Z,20.00
2022-12-04T19:59:20.898Z,20.50
2022-12-04T20:01:48.986Z,17.00
2022-12-04T20:04:17.748Z,19.00
2022-12-04T20:06:47.092Z,20.50
2022-12-04T20:09:20.656Z,25.00
2022-12-04T20:11:49.494Z,19.00
2022-12-04T20:14:17.770Z,19.00
2022-12-04T20:16:46.897Z,15.50
2022-12-04T20:19:17.145Z,16.00
2022-12-04T20:21:46.273Z,15.00
2022-12-04T20:24:16.912Z,17.00
2022-12-04T20:26:46.956Z,17.00
2022-12-04T20:31:45.917Z,19.00
2022-12-04T20:34:16.805Z,17.00
2022-12-04T20:39:15.835Z,12.00
2022-12-04T20:41:43.935Z,18.00
2022-12-04T20:44:15.801Z,15.00
2022-12-04T20:46:45.122Z,20.00
2022-12-04T20:51:52.042Z,13.00
2022-12-04T20:54:22.336Z,15.00
2022-12-04T20:59:22.337Z,18.00
2022-12-04T21:06:48.445Z,13.00
2022-12-04T21:09:23.229Z,16.00
2022-12-04T21:14:42.496Z,15.50
2022-12-04T21:19:41.629Z,17.00
2022-12-04T21:22:09.712Z,17.00
2022-12-04T21:24:39.621Z,16.00
2022-12-04T21:27:09.602Z,14.00
2022-12-04T21:32:07.483Z,15.00
2022-12-04T21:34:36.970Z,13.00
2022-12-04T21:37:07.829Z,13.00
2022-12-04T21:42:58.080Z,14.00
2022-12-04T21:48:37.467Z,15.50
2022-12-04T21:51:21.476Z,15.00
2022-12-04T21:56:23.992Z,17.00
2022-12-04T22:03:51.905Z,16.50
2022-12-04T22:06:21.699Z,17.00
2022-12-04T22:08:49.885Z,16.00
2022-12-04T22:11:19.303Z,15.00
2022-12-04T22:13:47.413Z,11.00
2022-12-04T22:16:17.687Z,15.00
2022-12-04T22:18:46.264Z,16.00
2022-12-04T22:21:16.121Z,15.00
2022-12-04T22:23:44.213Z,12.00
2022-12-04T22:26:19.288Z,11.00
2022-12-04T22:28:47.344Z,15.00
2022-12-04T22:31:20.053Z,9.00
2022-12-04T22:33:53.471Z,12.50
2022-12-04T22:36:25.393Z,13.00
2022-12-04T22:44:07.637Z,13.00
2022-12-04T22:46:36.295Z,15.00
2022-12-04T22:49:04.498Z,13.00
2022-12-04T22:51:32.409Z,16.00
2022-12-04T22:56:31.459Z,18.00
2022-12-04T22:59:00.702Z,16.00
2022-12-04T23:01:30.986Z,13.00
2022-12-04T23:04:00.515Z,13.00
2022-12-04T23:09:02.818Z,15.00
2022-12-04T23:11:31.417Z,16.00
2022-12-04T23:16:30.876Z,13.50
2022-12-04T23:21:28.097Z,13.00
2022-12-04T23:23:57.060Z,12.00
2022-12-04T23:26:31.475Z,17.00
2022-12-04T23:31:32.410Z,14.00
2022-12-04T23:34:02.286Z,12.50
2022-12-04T23:39:39.005Z,13.00
2022-12-04T23:42:07.040Z,15.00
2022-12-04T23:47:03.213Z,14.00
2022-12-04T23:49:31.291Z,10.00
2022-12-04T23:51:59.443Z,16.50
2022-12-04T23:54:28.657Z,15.00
2022-12-04T23:59:24.466Z,13.00
